sensor_id;sensor_type;location;lat;lon;timestamp;temperature;humidity
12386;DHT22;6257;57.634;18.310;2023-08-17T00:01:39;15.80;99.90
12386;DHT22;6257;57.634;18.310;2023-08-17T00:04:08;15.80;99.90
12386;DHT22;6257;57.634;18.310;2023-08-17T00:06:35;15.80;99.90
12386;DHT22;6257;57.634;18.310;2023-08-17T00:09:02;15.80;99.90
12386;DHT22;6257;57.634;18.310;2023-08-17T00:11:30;15.90;99.90
12386;DHT22;6257;57.634;18.310;2023-08-17T00:13:57;16.00;99.90
12386;DHT22;6257;57.634;18.310;2023-08-17T00:16:24;16.00;99.90
12386;DHT22;6257;57.634;18.310;2023-08-17T00:18:51;16.00;99.90
12386;DHT22;6257;57.634;18.310;2023-08-17T00:23:47;15.90;99.90
12386;DHT22;6257;57.634;18.310;2023-08-17T00:26:14;15.90;99.90
12386;DHT22;6257;57.634;18.310;2023-08-17T00:28:41;16.00;99.90
12386;DHT22;6257;57.634;18.310;2023-08-17T00:31:08;16.00;99.90
12386;DHT22;6257;57.634;18.310;2023-08-17T00:33:35;16.00;99.90
12386;DHT22;6257;57.634;18.310;2023-08-17T00:36:03;16.00;99.90
12386;DHT22;6257;57.634;18.310;2023-08-17T00:38:31;16.10;99.90
12386;DHT22;6257;57.634;18.310;2023-08-17T00:40:58;16.20;99.90
12386;DHT22;6257;57.634;18.310;2023-08-17T00:43:26;16.20;99.90
12386;DHT22;6257;57.634;18.310;2023-08-17T00:45:53;16.20;99.90
12386;DHT22;6257;57.634;18.310;2023-08-17T00:48:20;16.10;99.90
12386;DHT22;6257;57.634;18.310;2023-08-17T00:50:49;16.00;99.90
12386;DHT22;6257;57.634;18.310;2023-08-17T00:53:17;15.90;99.90
12386;DHT22;6257;57.634;18.310;2023-08-17T00:58:14;15.80;99.90
12386;DHT22;6257;57.634;18.310;2023-08-17T01:00:41;15.70;99.90
12386;DHT22;6257;57.634;18.310;2023-08-17T01:03:08;15.60;99.90
12386;DHT22;6257;57.634;18.310;2023-08-17T01:05:35;15.50;99.90
12386;DHT22;6257;57.634;18.310;2023-08-17T01:08:03;15.40;99.90
12386;DHT22;6257;57.634;18.310;2023-08-17T01:10:37;15.40;99.90
12386;DHT22;6257;57.634;18.310;2023-08-17T01:13:14;15.30;99.90
12386;DHT22;6257;57.634;18.310;2023-08-17T01:15:47;15.30;99.90
12386;DHT22;6257;57.634;18.310;2023-08-17T01:18:21;15.20;99.90
12386;DHT22;6257;57.634;18.310;2023-08-17T01:20:49;15.20;99.90
12386;DHT22;6257;57.634;18.310;2023-08-17T01:25:45;15.10;99.90
12386;DHT22;6257;57.634;18.310;2023-08-17T01:28:12;15.00;99.90
12386;DHT22;6257;57.634;18.310;2023-08-17T01:30:44;15.00;99.90
12386;DHT22;6257;57.634;18.310;2023-08-17T01:33:23;14.90;99.90
12386;DHT22;6257;57.634;18.310;2023-08-17T01:35:57;14.90;99.90
12386;DHT22;6257;57.634;18.310;2023-08-17T01:40:57;14.70;99.90
12386;DHT22;6257;57.634;18.310;2023-08-17T01:43:25;14.70;99.90
12386;DHT22;6257;57.634;18.310;2023-08-17T01:45:54;14.70;99.90
12386;DHT22;6257;57.634;18.310;2023-08-17T01:48:21;14.60;99.90
12386;DHT22;6257;57.634;18.310;2023-08-17T01:50:48;14.60;99.90
12386;DHT22;6257;57.634;18.310;2023-08-17T01:53:15;13.60;99.90
12386;DHT22;6257;57.634;18.310;2023-08-17T01:55:43;14.80;99.90
12386;DHT22;6257;57.634;18.310;2023-08-17T01:58:10;15.00;99.90
12386;DHT22;6257;57.634;18.310;2023-08-17T02:00:38;14.90;99.90
12386;DHT22;6257;57.634;18.310;2023-08-17T02:03:05;14.90;99.90
12386;DHT22;6257;57.634;18.310;2023-08-17T02:05:32;14.90;99.90
12386;DHT22;6257;57.634;18.310;2023-08-17T02:07:59;14.90;99.90
12386;DHT22;6257;57.634;18.310;2023-08-17T02:10:26;14.90;99.90
12386;DHT22;6257;57.634;18.310;2023-08-17T02:12:54;15.00;99.90
12386;DHT22;6257;57.634;18.310;2023-08-17T02:15:21;15.10;99.90
12386;DHT22;6257;57.634;18.310;2023-08-17T02:20:16;15.40;99.90
12386;DHT22;6257;57.634;18.310;2023-08-17T02:25:10;15.50;99.90
12386;DHT22;6257;57.634;18.310;2023-08-17T02:27:37;15.50;99.90
12386;DHT22;6257;57.634;18.310;2023-08-17T02:30:07;15.40;99.90
12386;DHT22;6257;57.634;18.310;2023-08-17T02:35:02;15.40;99.90
12386;DHT22;6257;57.634;18.310;2023-08-17T02:37:29;15.50;99.90
12386;DHT22;6257;57.634;18.310;2023-08-17T02:39:56;15.50;99.90
12386;DHT22;6257;57.634;18.310;2023-08-17T02:42:23;15.50;99.90
12386;DHT22;6257;57.634;18.310;2023-08-17T02:44:50;15.50;99.90
12386;DHT22;6257;57.634;18.310;2023-08-17T02:52:14;15.40;99.90
12386;DHT22;6257;57.634;18.310;2023-08-17T02:54:41;15.50;99.90
12386;DHT22;6257;57.634;18.310;2023-08-17T02:57:08;15.50;99.90
12386;DHT22;6257;57.634;18.310;2023-08-17T02:59:35;15.50;99.90
12386;DHT22;6257;57.634;18.310;2023-08-17T03:02:02;15.50;99.90
12386;DHT22;6257;57.634;18.310;2023-08-17T03:04:31;15.50;99.90
12386;DHT22;6257;57.634;18.310;2023-08-17T03:06:58;15.50;99.90
12386;DHT22;6257;57.634;18.310;2023-08-17T03:09:25;15.50;99.90
12386;DHT22;6257;57.634;18.310;2023-08-17T03:11:52;15.50;99.90
12386;DHT22;6257;57.634;18.310;2023-08-17T03:14:19;15.50;99.90
12386;DHT22;6257;57.634;18.310;2023-08-17T03:16:46;15.50;99.90
12386;DHT22;6257;57.634;18.310;2023-08-17T03:19:14;15.50;99.90
12386;DHT22;6257;57.634;18.310;2023-08-17T03:24:09;15.50;99.90
12386;DHT22;6257;57.634;18.310;2023-08-17T03:26:37;15.40;99.90
12386;DHT22;6257;57.634;18.310;2023-08-17T03:29:04;15.30;99.90
12386;DHT22;6257;57.634;18.310;2023-08-17T03:31:30;15.20;99.90
12386;DHT22;6257;57.634;18.310;2023-08-17T03:33:57;15.20;99.90
12386;DHT22;6257;57.634;18.310;2023-08-17T03:36:25;15.10;99.90
12386;DHT22;6257;57.634;18.310;2023-08-17T03:38:54;15.00;99.90
12386;DHT22;6257;57.634;18.310;2023-08-17T03:41:21;15.00;99.90
12386;DHT22;6257;57.634;18.310;2023-08-17T03:43:49;15.00;99.90
12386;DHT22;6257;57.634;18.310;2023-08-17T03:46:16;14.90;99.90
12386;DHT22;6257;57.634;18.310;2023-08-17T03:48:44;14.90;99.90
12386;DHT22;6257;57.634;18.310;2023-08-17T03:51:11;14.90;99.90
12386;DHT22;6257;57.634;18.310;2023-08-17T03:53:38;14.90;99.90
12386;DHT22;6257;57.634;18.310;2023-08-17T03:56:06;14.90;99.90
12386;DHT22;6257;57.634;18.310;2023-08-17T03:58:33;14.90;99.90
12386;DHT22;6257;57.634;18.310;2023-08-17T04:01:00;15.00;99.90
12386;DHT22;6257;57.634;18.310;2023-08-17T04:03:28;15.00;99.90
12386;DHT22;6257;57.634;18.310;2023-08-17T04:05:55;14.90;99.90
12386;DHT22;6257;57.634;18.310;2023-08-17T04:08:23;14.90;99.90
12386;DHT22;6257;57.634;18.310;2023-08-17T04:10:50;14.80;99.90
12386;DHT22;6257;57.634;18.310;2023-08-17T04:15:45;14.70;99.90
12386;DHT22;6257;57.634;18.310;2023-08-17T04:18:12;14.60;99.90
12386;DHT22;6257;57.634;18.310;2023-08-17T04:20:39;14.60;99.90
12386;DHT22;6257;57.634;18.310;2023-08-17T04:23:06;14.60;99.90
12386;DHT22;6257;57.634;18.310;2023-08-17T04:25:33;14.70;99.90
12386;DHT22;6257;57.634;18.310;2023-08-17T04:28:00;14.70;99.90
12386;DHT22;6257;57.634;18.310;2023-08-17T04:30:29;14.80;99.90
12386;DHT22;6257;57.634;18.310;2023-08-17T04:32:56;14.90;99.90
12386;DHT22;6257;57.634;18.310;2023-08-17T04:35:23;15.00;99.90
12386;DHT22;6257;57.634;18.310;2023-08-17T04:37:50;15.20;99.90
12386;DHT22;6257;57.634;18.310;2023-08-17T04:40:17;15.30;99.90
12386;DHT22;6257;57.634;18.310;2023-08-17T04:42:44;15.50;99.90
12386;DHT22;6257;57.634;18.310;2023-08-17T04:45:11;15.70;99.90
12386;DHT22;6257;57.634;18.310;2023-08-17T04:50:07;16.10;99.90
12386;DHT22;6257;57.634;18.310;2023-08-17T04:52:34;16.10;99.90
12386;DHT22;6257;57.634;18.310;2023-08-17T04:55:02;16.30;99.90
12386;DHT22;6257;57.634;18.310;2023-08-17T04:57:29;16.40;99.90
12386;DHT22;6257;57.634;18.310;2023-08-17T04:59:56;16.60;99.90
12386;DHT22;6257;57.634;18.310;2023-08-17T05:02:23;16.70;99.90
12386;DHT22;6257;57.634;18.310;2023-08-17T05:07:19;16.70;99.90
12386;DHT22;6257;57.634;18.310;2023-08-17T05:09:46;16.70;99.90
12386;DHT22;6257;57.634;18.310;2023-08-17T05:12:13;16.70;99.90
12386;DHT22;6257;57.634;18.310;2023-08-17T05:14:40;16.80;99.90
12386;DHT22;6257;57.634;18.310;2023-08-17T05:17:07;15.90;99.90
12386;DHT22;6257;57.634;18.310;2023-08-17T05:19:34;16.80;99.90
12386;DHT22;6257;57.634;18.310;2023-08-17T05:24:30;16.80;99.90
12386;DHT22;6257;57.634;18.310;2023-08-17T05:26:57;16.80;99.90
12386;DHT22;6257;57.634;18.310;2023-08-17T05:29:24;16.70;99.90
12386;DHT22;6257;57.634;18.310;2023-08-17T05:31:51;16.70;99.90
12386;DHT22;6257;57.634;18.310;2023-08-17T05:34:18;16.70;99.90
12386;DHT22;6257;57.634;18.310;2023-08-17T05:36:45;16.70;99.90
12386;DHT22;6257;57.634;18.310;2023-08-17T05:39:13;16.80;99.90
12386;DHT22;6257;57.634;18.310;2023-08-17T05:41:40;16.80;99.90
12386;DHT22;6257;57.634;18.310;2023-08-17T05:44:07;17.90;99.90
12386;DHT22;6257;57.634;18.310;2023-08-17T05:46:35;16.90;99.90
12386;DHT22;6257;57.634;18.310;2023-08-17T05:49:04;17.00;99.90
12386;DHT22;6257;57.634;18.310;2023-08-17T05:51:31;17.00;99.90
12386;DHT22;6257;57.634;18.310;2023-08-17T05:53:58;17.00;99.90
12386;DHT22;6257;57.634;18.310;2023-08-17T05:56:26;17.00;99.90
12386;DHT22;6257;57.634;18.310;2023-08-17T05:58:53;17.00;99.90
12386;DHT22;6257;57.634;18.310;2023-08-17T06:01:21;17.00;99.90
12386;DHT22;6257;57.634;18.310;2023-08-17T06:03:48;17.00;99.90
12386;DHT22;6257;57.634;18.310;2023-08-17T06:06:15;17.00;99.90
12386;DHT22;6257;57.634;18.310;2023-08-17T06:08:42;17.10;99.90
12386;DHT22;6257;57.634;18.310;2023-08-17T06:11:09;17.20;99.90
12386;DHT22;6257;57.634;18.310;2023-08-17T06:13:38;17.30;99.90
12386;DHT22;6257;57.634;18.310;2023-08-17T06:16:05;17.40;99.90
12386;DHT22;6257;57.634;18.310;2023-08-17T06:18:32;17.50;99.90
12386;DHT22;6257;57.634;18.310;2023-08-17T06:20:59;17.50;99.90
12386;DHT22;6257;57.634;18.310;2023-08-17T06:23:26;17.50;99.90
12386;DHT22;6257;57.634;18.310;2023-08-17T06:25:56;17.50;99.90
12386;DHT22;6257;57.634;18.310;2023-08-17T06:28:24;17.50;99.90
12386;DHT22;6257;57.634;18.310;2023-08-17T06:33:20;17.50;99.90
12386;DHT22;6257;57.634;18.310;2023-08-17T06:40:43;17.50;99.90
12386;DHT22;6257;57.634;18.310;2023-08-17T06:43:10;17.50;99.90
12386;DHT22;6257;57.634;18.310;2023-08-17T06:45:37;17.50;99.90
12386;DHT22;6257;57.634;18.310;2023-08-17T06:48:06;17.50;99.90
12386;DHT22;6257;57.634;18.310;2023-08-17T06:50:33;17.50;99.90
12386;DHT22;6257;57.634;18.310;2023-08-17T06:53:01;17.50;99.90
12386;DHT22;6257;57.634;18.310;2023-08-17T06:55:28;17.50;99.90
12386;DHT22;6257;57.634;18.310;2023-08-17T06:57:55;17.50;99.90
12386;DHT22;6257;57.634;18.310;2023-08-17T07:00:22;17.50;99.90
12386;DHT22;6257;57.634;18.310;2023-08-17T07:02:50;17.50;99.90
12386;DHT22;6257;57.634;18.310;2023-08-17T07:07:45;17.60;99.90
12386;DHT22;6257;57.634;18.310;2023-08-17T07:10:13;17.60;99.90
12386;DHT22;6257;57.634;18.310;2023-08-17T07:12:40;17.60;99.90
12386;DHT22;6257;57.634;18.310;2023-08-17T07:15:07;17.60;99.90
12386;DHT22;6257;57.634;18.310;2023-08-17T07:17:35;17.60;99.90
12386;DHT22;6257;57.634;18.310;2023-08-17T07:20:02;17.70;99.90
12386;DHT22;6257;57.634;18.310;2023-08-17T07:22:31;17.80;99.90
12386;DHT22;6257;57.634;18.310;2023-08-17T07:24:58;17.80;99.90
12386;DHT22;6257;57.634;18.310;2023-08-17T07:27:25;17.90;99.90
12386;DHT22;6257;57.634;18.310;2023-08-17T07:29:52;17.90;99.90
12386;DHT22;6257;57.634;18.310;2023-08-17T07:32:19;18.00;99.90
12386;DHT22;6257;57.634;18.310;2023-08-17T07:34:47;18.10;99.90
12386;DHT22;6257;57.634;18.310;2023-08-17T07:37:14;18.10;99.90
12386;DHT22;6257;57.634;18.310;2023-08-17T07:39:43;18.30;99.90
12386;DHT22;6257;57.634;18.310;2023-08-17T07:42:10;18.40;99.90
12386;DHT22;6257;57.634;18.310;2023-08-17T07:44:37;18.60;99.90
12386;DHT22;6257;57.634;18.310;2023-08-17T07:47:05;18.70;99.90
12386;DHT22;6257;57.634;18.310;2023-08-17T07:49:32;18.80;99.90
12386;DHT22;6257;57.634;18.310;2023-08-17T07:51:59;19.00;99.90
12386;DHT22;6257;57.634;18.310;2023-08-17T07:54:27;19.20;99.90
12386;DHT22;6257;57.634;18.310;2023-08-17T07:56:56;19.40;99.90
12386;DHT22;6257;57.634;18.310;2023-08-17T07:59:23;20.30;99.90
12386;DHT22;6257;57.634;18.310;2023-08-17T08:01:50;19.90;99.90
12386;DHT22;6257;57.634;18.310;2023-08-17T08:04:17;20.20;99.90
12386;DHT22;6257;57.634;18.310;2023-08-17T08:06:44;20.30;99.90
12386;DHT22;6257;57.634;18.310;2023-08-17T08:09:11;20.70;99.90
12386;DHT22;6257;57.634;18.310;2023-08-17T08:11:38;21.30;99.90
12386;DHT22;6257;57.634;18.310;2023-08-17T08:14:07;21.50;99.90
12386;DHT22;6257;57.634;18.310;2023-08-17T08:16:34;21.70;99.90
12386;DHT22;6257;57.634;18.310;2023-08-17T08:19:01;21.90;99.90
12386;DHT22;6257;57.634;18.310;2023-08-17T08:21:28;22.30;99.90
12386;DHT22;6257;57.634;18.310;2023-08-17T08:23:55;22.50;99.90
12386;DHT22;6257;57.634;18.310;2023-08-17T08:26:22;22.60;99.90
12386;DHT22;6257;57.634;18.310;2023-08-17T08:28:50;23.10;99.90
12386;DHT22;6257;57.634;18.310;2023-08-17T08:33:46;24.00;99.90
12386;DHT22;6257;57.634;18.310;2023-08-17T08:36:13;24.70;99.90
12386;DHT22;6257;57.634;18.310;2023-08-17T08:38:40;25.10;99.90
12386;DHT22;6257;57.634;18.310;2023-08-17T08:41:08;25.90;99.90
12386;DHT22;6257;57.634;18.310;2023-08-17T08:43:36;26.10;99.90
12386;DHT22;6257;57.634;18.310;2023-08-17T08:46:04;26.30;99.90
12386;DHT22;6257;57.634;18.310;2023-08-17T08:48:32;26.40;99.90
12386;DHT22;6257;57.634;18.310;2023-08-17T08:51:01;27.20;99.90
12386;DHT22;6257;57.634;18.310;2023-08-17T08:53:32;26.90;99.90
12386;DHT22;6257;57.634;18.310;2023-08-17T08:56:02;25.40;99.90
12386;DHT22;6257;57.634;18.310;2023-08-17T08:58:30;23.10;99.90
12386;DHT22;6257;57.634;18.310;2023-08-17T09:00:58;22.00;99.90
12386;DHT22;6257;57.634;18.310;2023-08-17T09:03:26;21.10;99.90
12386;DHT22;6257;57.634;18.310;2023-08-17T09:05:55;20.40;99.90
12386;DHT22;6257;57.634;18.310;2023-08-17T09:08:26;20.00;99.90
12386;DHT22;6257;57.634;18.310;2023-08-17T09:10:54;19.80;99.90
12386;DHT22;6257;57.634;18.310;2023-08-17T09:13:21;19.40;99.90
12386;DHT22;6257;57.634;18.310;2023-08-17T09:15:48;19.10;99.90
12386;DHT22;6257;57.634;18.310;2023-08-17T09:18:16;19.00;99.90
12386;DHT22;6257;57.634;18.310;2023-08-17T09:20:44;18.90;99.90
12386;DHT22;6257;57.634;18.310;2023-08-17T09:23:14;18.80;99.90
12386;DHT22;6257;57.634;18.310;2023-08-17T09:25:42;18.70;99.90
12386;DHT22;6257;57.634;18.310;2023-08-17T09:28:11;18.70;99.90
12386;DHT22;6257;57.634;18.310;2023-08-17T09:30:53;18.60;99.90
12386;DHT22;6257;57.634;18.310;2023-08-17T09:33:21;18.50;99.90
12386;DHT22;6257;57.634;18.310;2023-08-17T09:35:49;18.50;99.90
12386;DHT22;6257;57.634;18.310;2023-08-17T09:38:17;18.50;99.90
12386;DHT22;6257;57.634;18.310;2023-08-17T09:40:45;18.60;99.90
12386;DHT22;6257;57.634;18.310;2023-08-17T09:43:14;18.70;99.90
12386;DHT22;6257;57.634;18.310;2023-08-17T09:45:43;18.70;99.90
12386;DHT22;6257;57.634;18.310;2023-08-17T09:48:14;18.60;99.90
12386;DHT22;6257;57.634;18.310;2023-08-17T09:50:42;18.60;99.90
12386;DHT22;6257;57.634;18.310;2023-08-17T09:53:12;18.70;99.90
12386;DHT22;6257;57.634;18.310;2023-08-17T09:58:08;18.70;99.90
12386;DHT22;6257;57.634;18.310;2023-08-17T10:00:36;18.70;99.90
12386;DHT22;6257;57.634;18.310;2023-08-17T10:03:05;18.70;99.90
12386;DHT22;6257;57.634;18.310;2023-08-17T10:05:38;18.70;99.90
12386;DHT22;6257;57.634;18.310;2023-08-17T10:08:07;18.80;99.90
12386;DHT22;6257;57.634;18.310;2023-08-17T10:10:37;18.70;99.90
12386;DHT22;6257;57.634;18.310;2023-08-17T10:13:09;18.70;99.90
12386;DHT22;6257;57.634;18.310;2023-08-17T10:15:41;18.80;99.90
12386;DHT22;6257;57.634;18.310;2023-08-17T10:18:16;18.90;99.90
12386;DHT22;6257;57.634;18.310;2023-08-17T10:20:52;18.80;99.90
12386;DHT22;6257;57.634;18.310;2023-08-17T10:23:24;18.70;99.90
12386;DHT22;6257;57.634;18.310;2023-08-17T10:25:52;18.80;99.90
12386;DHT22;6257;57.634;18.310;2023-08-17T10:30:49;19.00;99.90
12386;DHT22;6257;57.634;18.310;2023-08-17T10:33:16;19.10;99.90
12386;DHT22;6257;57.634;18.310;2023-08-17T10:35:44;19.10;99.90
12386;DHT22;6257;57.634;18.310;2023-08-17T10:38:12;19.10;99.90
12386;DHT22;6257;57.634;18.310;2023-08-17T10:40:41;19.10;99.90
12386;DHT22;6257;57.634;18.310;2023-08-17T10:43:09;19.10;99.90
12386;DHT22;6257;57.634;18.310;2023-08-17T10:45:39;19.10;99.90
12386;DHT22;6257;57.634;18.310;2023-08-17T10:48:25;19.10;99.90
12386;DHT22;6257;57.634;18.310;2023-08-17T10:51:02;18.90;99.90
12386;DHT22;6257;57.634;18.310;2023-08-17T10:53:37;18.90;99.90
12386;DHT22;6257;57.634;18.310;2023-08-17T10:56:11;18.70;99.90
12386;DHT22;6257;57.634;18.310;2023-08-17T10:58:38;18.70;99.90
12386;DHT22;6257;57.634;18.310;2023-08-17T11:01:08;18.80;99.90
12386;DHT22;6257;57.634;18.310;2023-08-17T11:03:36;18.80;99.90
12386;DHT22;6257;57.634;18.310;2023-08-17T11:06:17;18.80;99.90
12386;DHT22;6257;57.634;18.310;2023-08-17T11:08:54;18.80;99.90
12386;DHT22;6257;57.634;18.310;2023-08-17T11:11:22;18.90;99.90
12386;DHT22;6257;57.634;18.310;2023-08-17T11:13:50;19.00;99.90
12386;DHT22;6257;57.634;18.310;2023-08-17T11:16:20;19.00;99.90
12386;DHT22;6257;57.634;18.310;2023-08-17T11:18:48;19.00;99.90
12386;DHT22;6257;57.634;18.310;2023-08-17T11:21:16;19.00;99.90
12386;DHT22;6257;57.634;18.310;2023-08-17T11:23:44;19.00;99.90
12386;DHT22;6257;57.634;18.310;2023-08-17T11:26:11;19.10;99.90
12386;DHT22;6257;57.634;18.310;2023-08-17T11:28:38;19.10;99.90
12386;DHT22;6257;57.634;18.310;2023-08-17T11:31:08;19.10;99.90
12386;DHT22;6257;57.634;18.310;2023-08-17T11:33:37;19.10;99.90
12386;DHT22;6257;57.634;18.310;2023-08-17T11:36:06;19.20;99.90
12386;DHT22;6257;57.634;18.310;2023-08-17T11:38:34;19.10;99.90
12386;DHT22;6257;57.634;18.310;2023-08-17T11:41:02;19.10;99.90
12386;DHT22;6257;57.634;18.310;2023-08-17T11:43:30;19.00;99.90
12386;DHT22;6257;57.634;18.310;2023-08-17T11:45:57;19.10;99.90
12386;DHT22;6257;57.634;18.310;2023-08-17T11:48:24;19.10;99.90
12386;DHT22;6257;57.634;18.310;2023-08-17T11:50:53;19.10;99.90
12386;DHT22;6257;57.634;18.310;2023-08-17T11:53:21;19.10;99.90
12386;DHT22;6257;57.634;18.310;2023-08-17T11:55:48;19.10;99.90
12386;DHT22;6257;57.634;18.310;2023-08-17T11:58:15;19.10;99.90
12386;DHT22;6257;57.634;18.310;2023-08-17T12:00:44;19.20;99.90
12386;DHT22;6257;57.634;18.310;2023-08-17T12:03:13;19.30;99.90
12386;DHT22;6257;57.634;18.310;2023-08-17T12:05:42;19.40;99.90
12386;DHT22;6257;57.634;18.310;2023-08-17T12:08:13;19.40;99.90
12386;DHT22;6257;57.634;18.310;2023-08-17T12:10:41;19.40;99.90
12386;DHT22;6257;57.634;18.310;2023-08-17T12:13:11;19.20;99.90
12386;DHT22;6257;57.634;18.310;2023-08-17T12:15:40;19.10;99.90
12386;DHT22;6257;57.634;18.310;2023-08-17T12:18:07;18.20;99.90
12386;DHT22;6257;57.634;18.310;2023-08-17T12:20:34;19.00;99.90
12386;DHT22;6257;57.634;18.310;2023-08-17T12:23:02;19.10;99.90
12386;DHT22;6257;57.634;18.310;2023-08-17T12:25:31;19.20;99.90
12386;DHT22;6257;57.634;18.310;2023-08-17T12:27:59;19.30;99.90
12386;DHT22;6257;57.634;18.310;2023-08-17T12:30:28;19.30;99.90
12386;DHT22;6257;57.634;18.310;2023-08-17T12:32:57;19.30;99.90
12386;DHT22;6257;57.634;18.310;2023-08-17T12:35:24;19.40;99.90
12386;DHT22;6257;57.634;18.310;2023-08-17T12:37:51;19.50;99.90
12386;DHT22;6257;57.634;18.310;2023-08-17T12:40:19;19.60;99.90
12386;DHT22;6257;57.634;18.310;2023-08-17T12:42:47;19.70;99.90
12386;DHT22;6257;57.634;18.310;2023-08-17T12:45:15;19.80;99.90
12386;DHT22;6257;57.634;18.310;2023-08-17T12:47:42;19.70;99.90
12386;DHT22;6257;57.634;18.310;2023-08-17T12:50:10;19.70;99.90
12386;DHT22;6257;57.634;18.310;2023-08-17T12:52:37;19.80;99.90
12386;DHT22;6257;57.634;18.310;2023-08-17T12:55:05;19.80;99.90
12386;DHT22;6257;57.634;18.310;2023-08-17T12:57:32;19.80;99.90
12386;DHT22;6257;57.634;18.310;2023-08-17T13:00:00;22.10;99.90
12386;DHT22;6257;57.634;18.310;2023-08-17T13:02:27;19.80;99.90
12386;DHT22;6257;57.634;18.310;2023-08-17T13:04:54;19.70;99.90
12386;DHT22;6257;57.634;18.310;2023-08-17T13:07:21;19.70;99.90
12386;DHT22;6257;57.634;18.310;2023-08-17T13:09:48;19.70;99.90
12386;DHT22;6257;57.634;18.310;2023-08-17T13:12:16;19.70;99.90
12386;DHT22;6257;57.634;18.310;2023-08-17T13:14:42;19.70;99.90
12386;DHT22;6257;57.634;18.310;2023-08-17T13:19:40;19.70;99.90
12386;DHT22;6257;57.634;18.310;2023-08-17T13:22:07;19.70;99.90
12386;DHT22;6257;57.634;18.310;2023-08-17T13:24:34;19.70;99.90
12386;DHT22;6257;57.634;18.310;2023-08-17T13:27:01;19.80;99.90
12386;DHT22;6257;57.634;18.310;2023-08-17T13:29:28;19.70;99.90
12386;DHT22;6257;57.634;18.310;2023-08-17T13:31:55;19.60;99.90
12386;DHT22;6257;57.634;18.310;2023-08-17T13:34:25;19.50;99.90
12386;DHT22;6257;57.634;18.310;2023-08-17T13:36:53;19.40;99.90
12386;DHT22;6257;57.634;18.310;2023-08-17T13:39:20;19.40;99.90
12386;DHT22;6257;57.634;18.310;2023-08-17T13:51:41;19.40;99.90
12386;DHT22;6257;57.634;18.310;2023-08-17T13:54:08;19.40;99.90
12386;DHT22;6257;57.634;18.310;2023-08-17T13:56:35;19.50;99.90
12386;DHT22;6257;57.634;18.310;2023-08-17T13:59:02;19.50;99.90
12386;DHT22;6257;57.634;18.310;2023-08-17T14:01:29;19.60;99.90
12386;DHT22;6257;57.634;18.310;2023-08-17T14:03:56;19.60;99.90
12386;DHT22;6257;57.634;18.310;2023-08-17T14:06:23;19.60;99.90
12386;DHT22;6257;57.634;18.310;2023-08-17T14:08:52;19.70;99.90
12386;DHT22;6257;57.634;18.310;2023-08-17T14:11:19;19.70;99.90
12386;DHT22;6257;57.634;18.310;2023-08-17T14:13:46;19.70;99.90
12386;DHT22;6257;57.634;18.310;2023-08-17T14:16:13;19.70;99.90
12386;DHT22;6257;57.634;18.310;2023-08-17T14:18:40;19.70;99.90
12386;DHT22;6257;57.634;18.310;2023-08-17T14:21:07;19.60;99.90
12386;DHT22;6257;57.634;18.310;2023-08-17T14:23:34;19.70;99.90
12386;DHT22;6257;57.634;18.310;2023-08-17T14:26:03;19.90;99.90
12386;DHT22;6257;57.634;18.310;2023-08-17T14:28:30;20.00;99.90
12386;DHT22;6257;57.634;18.310;2023-08-17T14:33:25;20.00;99.90
12386;DHT22;6257;57.634;18.310;2023-08-17T14:35:52;20.00;99.90
12386;DHT22;6257;57.634;18.310;2023-08-17T14:38:19;20.10;99.90
12386;DHT22;6257;57.634;18.310;2023-08-17T14:40:47;20.10;99.90
12386;DHT22;6257;57.634;18.310;2023-08-17T14:43:19;20.30;99.90
12386;DHT22;6257;57.634;18.310;2023-08-17T14:45:46;20.40;99.90
12386;DHT22;6257;57.634;18.310;2023-08-17T14:53:08;20.20;99.90
12386;DHT22;6257;57.634;18.310;2023-08-17T14:55:35;20.10;99.90
12386;DHT22;6257;57.634;18.310;2023-08-17T14:58:03;20.00;99.90
12386;DHT22;6257;57.634;18.310;2023-08-17T15:02:59;22.60;99.90
12386;DHT22;6257;57.634;18.310;2023-08-17T15:07:53;19.50;99.90
12386;DHT22;6257;57.634;18.310;2023-08-17T15:10:20;19.40;99.90
12386;DHT22;6257;57.634;18.310;2023-08-17T15:12:47;19.50;99.90
12386;DHT22;6257;57.634;18.310;2023-08-17T15:15:15;19.60;99.90
12386;DHT22;6257;57.634;18.310;2023-08-17T15:20:11;19.60;99.90
12386;DHT22;6257;57.634;18.310;2023-08-17T15:22:38;19.70;99.90
12386;DHT22;6257;57.634;18.310;2023-08-17T15:25:05;19.80;99.90
12386;DHT22;6257;57.634;18.310;2023-08-17T15:27:33;19.80;99.90
12386;DHT22;6257;57.634;18.310;2023-08-17T15:30:00;19.80;99.90
12386;DHT22;6257;57.634;18.310;2023-08-17T15:32:27;19.70;99.90
12386;DHT22;6257;57.634;18.310;2023-08-17T15:34:56;19.80;99.90
12386;DHT22;6257;57.634;18.310;2023-08-17T15:37:23;19.70;99.90
12386;DHT22;6257;57.634;18.310;2023-08-17T15:39:50;19.80;99.90
12386;DHT22;6257;57.634;18.310;2023-08-17T15:42:17;19.80;99.90
12386;DHT22;6257;57.634;18.310;2023-08-17T15:44:44;19.90;99.90
12386;DHT22;6257;57.634;18.310;2023-08-17T15:47:11;20.00;99.90
12386;DHT22;6257;57.634;18.310;2023-08-17T15:49:38;20.10;99.90
12386;DHT22;6257;57.634;18.310;2023-08-17T15:52:07;20.00;99.90
12386;DHT22;6257;57.634;18.310;2023-08-17T15:54:34;20.00;99.90
12386;DHT22;6257;57.634;18.310;2023-08-17T15:57:02;19.90;99.90
12386;DHT22;6257;57.634;18.310;2023-08-17T15:59:29;19.80;99.90
12386;DHT22;6257;57.634;18.310;2023-08-17T16:01:56;19.70;99.90
12386;DHT22;6257;57.634;18.310;2023-08-17T16:04:23;19.70;99.90
12386;DHT22;6257;57.634;18.310;2023-08-17T16:06:50;19.70;99.90
12386;DHT22;6257;57.634;18.310;2023-08-17T16:09:20;19.70;99.90
12386;DHT22;6257;57.634;18.310;2023-08-17T16:11:48;19.70;99.90
12386;DHT22;6257;57.634;18.310;2023-08-17T16:14:15;19.60;99.90
12386;DHT22;6257;57.634;18.310;2023-08-17T16:16:42;19.60;99.90
12386;DHT22;6257;57.634;18.310;2023-08-17T16:19:09;20.60;99.90
12386;DHT22;6257;57.634;18.310;2023-08-17T16:21:36;19.50;99.90
12386;DHT22;6257;57.634;18.310;2023-08-17T16:24:03;19.40;99.90
12386;DHT22;6257;57.634;18.310;2023-08-17T16:26:32;19.40;99.90
12386;DHT22;6257;57.634;18.310;2023-08-17T16:28:59;19.50;99.90
12386;DHT22;6257;57.634;18.310;2023-08-17T16:31:26;19.60;99.90
12386;DHT22;6257;57.634;18.310;2023-08-17T16:33:53;19.70;99.90
12386;DHT22;6257;57.634;18.310;2023-08-17T16:36:21;19.70;99.90
12386;DHT22;6257;57.634;18.310;2023-08-17T16:38:48;19.70;99.90
12386;DHT22;6257;57.634;18.310;2023-08-17T16:41:15;19.70;99.90
12386;DHT22;6257;57.634;18.310;2023-08-17T16:43:43;19.80;99.90
12386;DHT22;6257;57.634;18.310;2023-08-17T16:46:10;19.80;99.90
12386;DHT22;6257;57.634;18.310;2023-08-17T16:48:37;19.70;99.90
12386;DHT22;6257;57.634;18.310;2023-08-17T16:51:04;19.80;99.90
12386;DHT22;6257;57.634;18.310;2023-08-17T16:53:32;19.70;99.90